createdAt,value
2018-01-02T00:00:53.374Z,995.65
2018-01-02T00:02:03.317Z,995.65
2018-01-02T00:03:13.256Z,995.62
2018-01-02T00:04:23.191Z,995.66
2018-01-02T00:05:33.134Z,995.66
2018-01-02T00:06:43.064Z,995.66
2018-01-02T00:07:53.010Z,995.7
2018-01-02T00:09:02.468Z,995.67
2018-01-02T00:10:12.348Z,995.68
2018-01-02T00:11:22.297Z,995.67
2018-01-02T00:12:32.270Z,995.63
2018-01-02T00:13:42.211Z,995.64
2018-01-02T00:14:52.171Z,995.61
2018-01-02T00:16:02.128Z,995.64
2018-01-02T00:17:12.087Z,995.65
2018-01-02T00:18:22.032Z,995.67
2018-01-02T00:19:31.998Z,995.68
2018-01-02T00:20:41.987Z,995.65
2018-01-02T00:21:51.937Z,995.67
2018-01-02T00:23:01.885Z,995.72
2018-01-02T00:24:11.835Z,995.7
2018-01-02T00:25:21.290Z,995.72
2018-01-02T00:26:31.234Z,995.73
2018-01-02T00:27:40.938Z,995.71
2018-01-02T00:28:50.881Z,995.69
2018-01-02T00:30:00.834Z,995.68
2018-01-02T00:31:10.523Z,995.7
2018-01-02T00:32:20.469Z,995.68
2018-01-02T00:33:30.168Z,995.69
2018-01-02T00:34:40.124Z,995.69
2018-01-02T00:35:49.562Z,995.71
2018-01-02T00:36:59.253Z,995.69
2018-01-02T00:38:09.204Z,995.65
2018-01-02T00:39:18.656Z,995.66
2018-01-02T00:40:28.092Z,995.6
2018-01-02T00:41:38.059Z,995.63
2018-01-02T00:42:48.000Z,995.58
2018-01-02T00:43:57.935Z,995.59
2018-01-02T00:45:07.636Z,995.63
2018-01-02T00:46:17.640Z,995.62
2018-01-02T00:47:27.598Z,995.6
2018-01-02T00:48:37.556Z,995.62
2018-01-02T00:49:47.243Z,995.67
2018-01-02T00:50:57.178Z,995.62
2018-01-02T00:52:07.141Z,995.65
2018-01-02T00:53:17.137Z,995.67
2018-01-02T00:54:27.073Z,995.71
2018-01-02T00:55:36.767Z,995.69
2018-01-02T00:56:46.718Z,995.72
2018-01-02T00:57:56.652Z,995.66
2018-01-02T00:59:06.618Z,995.67
2018-01-02T01:00:16.566Z,995.73
2018-01-02T01:01:26.507Z,995.74
2018-01-02T01:02:36.196Z,995.73
2018-01-02T01:03:46.141Z,995.77
2018-01-02T01:04:55.318Z,995.73
2018-01-02T01:06:05.000Z,995.68
2018-01-02T01:07:14.705Z,995.71
2018-01-02T01:08:24.638Z,995.69
2018-01-02T01:09:34.324Z,995.64
2018-01-02T01:10:44.270Z,995.65
2018-01-02T01:11:54.233Z,995.66
2018-01-02T01:13:03.664Z,995.66
2018-01-02T01:14:13.357Z,995.64
2018-01-02T01:15:23.311Z,995.62
2018-01-02T01:16:33.269Z,995.63
2018-01-02T01:17:43.240Z,995.62
2018-01-02T01:18:52.922Z,995.59
2018-01-02T01:20:02.862Z,995.55
2018-01-02T01:21:12.809Z,995.55
2018-01-02T01:22:22.506Z,995.61
2018-01-02T01:23:32.460Z,995.61
2018-01-02T01:24:42.404Z,995.59
2018-01-02T01:25:52.106Z,995.61
2018-01-02T01:27:02.069Z,995.58
2018-01-02T01:28:11.503Z,995.58
2018-01-02T01:29:21.218Z,995.54
2018-01-02T01:30:30.916Z,995.54
2018-01-02T01:31:40.871Z,995.49
2018-01-02T01:32:50.560Z,995.52
2018-01-02T01:34:00.503Z,995.53
2018-01-02T01:35:10.215Z,995.55
2018-01-02T01:36:19.906Z,995.58
2018-01-02T01:37:29.891Z,995.53
2018-01-02T01:38:39.848Z,995.53
2018-01-02T01:39:49.283Z,995.58
2018-01-02T01:40:59.227Z,995.47
2018-01-02T01:42:09.177Z,995.5
2018-01-02T01:43:19.110Z,995.52
2018-01-02T01:44:28.805Z,995.52
2018-01-02T01:45:38.591Z,995.49
2018-01-02T01:46:48.582Z,995.49
2018-01-02T01:47:58.276Z,995.47
2018-01-02T01:49:08.226Z,995.47
2018-01-02T01:50:17.913Z,995.46
2018-01-02T01:51:27.851Z,995.47
2018-01-02T01:52:37.793Z,995.49
2018-01-02T01:53:47.742Z,995.45
2018-01-02T01:54:57.687Z,995.41
2018-01-02T01:56:07.627Z,995.47
2018-01-02T01:57:17.577Z,995.44
2018-01-02T01:58:27.173Z,995.44
2018-01-02T01:59:36.606Z,995.48
2018-01-02T02:00:46.549Z,995.41
2018-01-02T02:01:56.500Z,995.45
2018-01-02T02:03:06.446Z,995.5
2018-01-02T02:04:16.403Z,995.46
2018-01-02T02:05:26.354Z,995.4
2018-01-02T02:06:36.298Z,995.42
2018-01-02T02:07:45.984Z,995.44
2018-01-02T02:08:55.669Z,995.43
2018-01-02T02:10:05.356Z,995.4
2018-01-02T02:11:15.045Z,995.39
2018-01-02T02:12:24.993Z,995.38
2018-01-02T02:13:34.937Z,995.4
2018-01-02T02:14:44.891Z,995.33
2018-01-02T02:15:54.847Z,995.36
2018-01-02T02:17:04.786Z,995.33
2018-01-02T02:18:14.710Z,995.27
2018-01-02T02:19:24.644Z,995.26
2018-01-02T02:20:34.335Z,995.24
2018-01-02T02:21:44.025Z,995.23
2018-01-02T02:22:53.722Z,995.21
2018-01-02T02:24:03.673Z,995.22
2018-01-02T02:25:13.615Z,995.17
2018-01-02T02:26:23.558Z,995.19
2018-01-02T02:27:33.488Z,995.17
2018-01-02T02:28:43.419Z,995.15
2018-01-02T02:29:53.368Z,995.11
2018-01-02T02:31:03.052Z,995.14
2018-01-02T02:32:12.999Z,995.13
2018-01-02T02:33:22.945Z,995.12
2018-01-02T02:34:32.904Z,995.17
2018-01-02T02:35:42.848Z,995.11
2018-01-02T02:36:52.554Z,995.09
2018-01-02T02:38:02.528Z,995.08
2018-01-02T02:39:12.479Z,995.08
2018-01-02T02:40:22.172Z,995.04
2018-01-02T02:41:31.870Z,995
2018-01-02T02:42:41.547Z,994.98
2018-01-02T02:43:50.985Z,994.97
2018-01-02T02:45:00.928Z,994.97
2018-01-02T02:46:10.358Z,994.93
2018-01-02T02:47:20.038Z,994.91
2018-01-02T02:48:30.083Z,994.86
2018-01-02T02:49:39.765Z,994.87
2018-01-02T02:50:49.718Z,994.85
2018-01-02T02:51:59.152Z,994.83
2018-01-02T02:53:09.110Z,994.85
2018-01-02T02:54:18.813Z,994.86
2018-01-02T02:55:28.762Z,994.8
2018-01-02T02:56:38.700Z,994.77
2018-01-02T02:57:48.649Z,994.78
2018-01-02T02:58:58.334Z,994.78
2018-01-02T03:00:08.271Z,994.77
2018-01-02T03:01:18.222Z,994.75
2018-01-02T03:02:28.167Z,994.71
2018-01-02T03:03:38.111Z,994.72
2018-01-02T03:04:48.063Z,994.68
2018-01-02T03:05:58.013Z,994.72
2018-01-02T03:07:07.699Z,994.68
2018-01-02T03:08:17.642Z,994.72
2018-01-02T03:09:27.581Z,994.71
2018-01-02T03:10:37.526Z,994.73
2018-01-02T03:11:47.469Z,994.69
2018-01-02T03:12:57.401Z,994.69
2018-01-02T03:14:07.351Z,994.66
2018-01-02T03:15:17.031Z,994.7
2018-01-02T03:16:26.973Z,994.69
2018-01-02T03:17:36.658Z,994.66
2018-01-02T03:18:46.597Z,994.7
2018-01-02T03:19:56.532Z,994.67
2018-01-02T03:21:06.489Z,994.66
2018-01-02T03:22:16.448Z,994.66
2018-01-02T03:23:26.396Z,994.66
2018-01-02T03:24:35.828Z,994.67
2018-01-02T03:25:45.768Z,994.69
2018-01-02T03:26:55.708Z,994.72
2018-01-02T03:28:05.667Z,994.75
2018-01-02T03:29:15.346Z,994.71
2018-01-02T03:30:25.287Z,994.71
2018-01-02T03:31:35.281Z,994.73
2018-01-02T03:32:45.226Z,994.71
2018-01-02T03:33:55.178Z,994.7
2018-01-02T03:35:04.605Z,994.71
2018-01-02T03:36:14.546Z,994.74
2018-01-02T03:37:24.488Z,994.73
2018-01-02T03:38:34.438Z,994.71
2018-01-02T03:39:44.380Z,994.67
2018-01-02T03:40:54.331Z,994.7
2018-01-02T03:42:04.285Z,994.69
2018-01-02T03:43:14.222Z,994.67
2018-01-02T03:44:24.160Z,994.62
2018-01-02T03:45:34.094Z,994.66
2018-01-02T03:46:43.782Z,994.67
2018-01-02T03:47:53.473Z,994.64
2018-01-02T03:49:03.463Z,994.65
2018-01-02T03:50:13.409Z,994.65
2018-01-02T03:51:23.094Z,994.68
2018-01-02T03:52:32.777Z,994.66
2018-01-02T03:53:42.721Z,994.64
2018-01-02T03:54:52.413Z,994.66
2018-01-02T03:56:02.099Z,994.66
2018-01-02T03:57:12.033Z,994.7
2018-01-02T03:58:21.737Z,994.71
2018-01-02T03:59:31.682Z,994.71
2018-01-02T04:00:41.635Z,994.66
2018-01-02T04:01:51.317Z,994.68
2018-01-02T04:03:01.257Z,994.68
2018-01-02T04:04:11.197Z,994.67
2018-01-02T04:05:21.147Z,994.69
2018-01-02T04:06:31.101Z,994.71
2018-01-02T04:07:41.052Z,994.72
2018-01-02T04:08:50.725Z,994.71
2018-01-02T04:10:00.669Z,994.68
2018-01-02T04:11:10.347Z,994.75
2018-01-02T04:12:19.776Z,994.69
2018-01-02T04:13:29.712Z,994.75
2018-01-02T04:14:39.390Z,994.72
2018-01-02T04:15:49.089Z,994.72
2018-01-02T04:16:59.039Z,994.76
2018-01-02T04:18:08.987Z,994.79
2018-01-02T04:19:18.669Z,994.75
2018-01-02T04:20:28.394Z,994.8
2018-01-02T04:21:38.356Z,994.8
2018-01-02T04:22:48.093Z,994.76
2018-01-02T04:23:58.033Z,994.73
2018-01-02T04:25:07.969Z,994.77
2018-01-02T04:26:17.649Z,994.75
2018-01-02T04:27:27.595Z,994.75
2018-01-02T04:28:37.297Z,994.74
2018-01-02T04:29:47.231Z,994.79
2018-01-02T04:30:56.916Z,994.77
2018-01-02T04:32:06.867Z,994.76
2018-01-02T04:33:16.819Z,994.77
2018-01-02T04:34:26.749Z,994.78
2018-01-02T04:35:36.182Z,994.74
2018-01-02T04:36:45.875Z,994.72
2018-01-02T04:37:55.830Z,994.76
2018-01-02T04:39:05.515Z,994.74
2018-01-02T04:40:15.203Z,994.76
2018-01-02T04:41:24.890Z,994.75
2018-01-02T04:42:34.572Z,994.74
2018-01-02T04:43:44.520Z,994.77
2018-01-02T04:44:54.460Z,994.79
2018-01-02T04:46:04.150Z,994.79
2018-01-02T04:47:13.833Z,994.79
2018-01-02T04:48:23.518Z,994.83
2018-01-02T04:49:33.214Z,994.83
2018-01-02T04:50:43.149Z,994.79
2018-01-02T04:51:52.581Z,994.8
2018-01-02T04:53:02.517Z,994.82
2018-01-02T04:54:12.195Z,994.81
2018-01-02T04:55:22.178Z,994.8
2018-01-02T04:56:31.874Z,994.86
2018-01-02T04:57:41.576Z,994.88
2018-01-02T04:58:51.268Z,994.86
2018-01-02T05:00:00.700Z,994.9
2018-01-02T05:01:10.387Z,994.92
2018-01-02T05:02:20.085Z,994.89
2018-01-02T05:03:30.027Z,994.94
2018-01-02T05:04:39.962Z,994.92
2018-01-02T05:05:49.899Z,994.96
2018-01-02T05:06:59.855Z,994.97
2018-01-02T05:08:09.792Z,994.97
2018-01-02T05:09:19.731Z,994.96
2018-01-02T05:10:29.669Z,994.92
2018-01-02T05:11:39.606Z,994.94
2018-01-02T05:12:49.543Z,994.95
2018-01-02T05:13:59.497Z,994.98
2018-01-02T05:15:09.184Z,994.91
2018-01-02T05:16:19.133Z,994.94
2018-01-02T05:17:28.572Z,995.01
2018-01-02T05:18:38.510Z,994.98
2018-01-02T05:19:48.197Z,994.99
2018-01-02T05:20:57.898Z,994.99
2018-01-02T05:22:07.853Z,995.05
2018-01-02T05:23:17.799Z,995.03
2018-01-02T05:24:27.746Z,995.05
2018-01-02T05:25:37.686Z,995.01
2018-01-02T05:26:47.382Z,995.04
2018-01-02T05:27:57.071Z,995.06
2018-01-02T05:29:06.766Z,995.07
2018-01-02T05:30:16.718Z,995.03
2018-01-02T05:31:26.152Z,995.05
2018-01-02T05:32:36.099Z,995.06
2018-01-02T05:33:46.046Z,995.08
2018-01-02T05:34:55.732Z,995.12
2018-01-02T05:36:04.645Z,995.16
2018-01-02T05:37:14.066Z,995.13
2018-01-02T05:38:23.999Z,995.14
2018-01-02T05:39:33.684Z,995.23
2018-01-02T05:40:43.367Z,995.22
2018-01-02T05:41:53.337Z,995.3
2018-01-02T05:43:03.372Z,995.3
2018-01-02T05:44:13.313Z,995.3
2018-01-02T05:45:23.258Z,995.34
2018-01-02T05:46:32.679Z,995.35
2018-01-02T05:47:42.372Z,995.4
2018-01-02T05:48:52.319Z,995.39
2018-01-02T05:50:02.044Z,995.42
2018-01-02T05:51:11.740Z,995.43
2018-01-02T05:52:21.691Z,995.5
2018-01-02T05:53:31.379Z,995.5
2018-01-02T05:54:41.313Z,995.53
2018-01-02T05:55:51.256Z,995.53
2018-01-02T05:57:00.958Z,995.58
2018-01-02T05:58:10.386Z,995.58
2018-01-02T05:59:19.822Z,995.61
2018-01-02T06:00:29.765Z,995.62
2018-01-02T06:01:39.704Z,995.67
2018-01-02T06:02:49.644Z,995.64
2018-01-02T06:03:59.589Z,995.64
2018-01-02T06:05:09.561Z,995.7
2018-01-02T06:06:19.505Z,995.73
2018-01-02T06:07:29.463Z,995.75
2018-01-02T06:08:39.409Z,995.78
2018-01-02T06:09:49.362Z,995.78
2018-01-02T06:10:59.302Z,995.81
2018-01-02T06:12:08.729Z,995.82
2018-01-02T06:13:18.668Z,995.88
2018-01-02T06:14:28.357Z,995.88
2018-01-02T06:15:38.054Z,995.89
2018-01-02T06:16:48.007Z,995.96
2018-01-02T06:17:57.950Z,995.97
2018-01-02T06:19:07.890Z,995.97
2018-01-02T06:20:17.834Z,996.02
2018-01-02T06:21:27.782Z,996.08
2018-01-02T06:22:37.467Z,996.11
2018-01-02T06:23:47.168Z,996.11
2018-01-02T06:24:57.133Z,996.17
2018-01-02T06:26:06.565Z,996.21
2018-01-02T06:27:16.270Z,996.25
2018-01-02T06:28:25.961Z,996.26
2018-01-02T06:29:35.395Z,996.31
2018-01-02T06:30:45.376Z,996.29
2018-01-02T06:31:55.321Z,996.37
2018-01-02T06:33:05.279Z,996.4
2018-01-02T06:34:15.247Z,996.43
2018-01-02T06:35:25.212Z,996.41
2018-01-02T06:36:34.893Z,996.48
2018-01-02T06:37:44.591Z,996.48
2018-01-02T06:38:54.532Z,996.51
2018-01-02T06:40:04.481Z,996.49
2018-01-02T06:41:14.420Z,996.49
2018-01-02T06:42:24.362Z,996.55
2018-01-02T06:43:34.095Z,996.64
2018-01-02T06:44:44.085Z,996.67
2018-01-02T06:45:54.022Z,996.71
2018-01-02T06:47:03.977Z,996.76
2018-01-02T06:48:13.667Z,996.79
2018-01-02T06:49:23.104Z,996.81
2018-01-02T06:50:33.049Z,996.84
2018-01-02T06:51:43.004Z,996.88
2018-01-02T06:52:52.950Z,996.86
2018-01-02T06:54:02.904Z,996.88
2018-01-02T06:55:12.596Z,996.89
2018-01-02T06:56:22.537Z,996.91
2018-01-02T06:57:32.729Z,996.94
2018-01-02T06:58:42.677Z,996.95
2018-01-02T06:59:52.631Z,997.04
2018-01-02T07:01:02.580Z,997.02
2018-01-02T07:02:12.267Z,997.09
2018-01-02T07:03:21.956Z,997.11
2018-01-02T07:04:31.654Z,997.17
2018-01-02T07:05:41.596Z,997.2
2018-01-02T07:06:51.286Z,997.24
2018-01-02T07:08:01.285Z,997.28
2018-01-02T07:09:10.969Z,997.34
2018-01-02T07:10:20.918Z,997.38
2018-01-02T07:11:30.864Z,997.44
2018-01-02T07:12:40.814Z,997.5
2018-01-02T07:13:50.520Z,997.54
2018-01-02T07:15:00.476Z,997.62
2018-01-02T07:16:10.460Z,997.58
2018-01-02T07:17:20.411Z,997.62
2018-01-02T07:18:30.102Z,997.69
2018-01-02T07:19:40.046Z,997.76
2018-01-02T07:20:49.731Z,997.68
2018-01-02T07:21:59.689Z,997.78
2018-01-02T07:23:09.631Z,997.77
2018-01-02T07:24:19.584Z,997.76
2018-01-02T07:25:29.539Z,997.86
2018-01-02T07:26:39.237Z,997.9
2018-01-02T07:27:48.935Z,997.88
2018-01-02T07:28:58.899Z,997.9
2018-01-02T07:30:08.849Z,997.95
2018-01-02T07:31:18.807Z,998.01
2018-01-02T07:32:28.756Z,997.98
2018-01-02T07:33:38.715Z,998.02
2018-01-02T07:34:48.146Z,998.03
2018-01-02T07:35:58.092Z,998.02
2018-01-02T07:37:08.040Z,998.07
2018-01-02T07:38:17.475Z,998.23
2018-01-02T07:39:27.418Z,998.14
2018-01-02T07:40:37.372Z,998.2
2018-01-02T07:41:47.322Z,998.21
2018-01-02T07:42:57.018Z,998.18
2018-01-02T07:44:06.961Z,998.27
2018-01-02T07:45:16.904Z,998.27
2018-01-02T07:46:26.842Z,998.27
2018-01-02T07:47:36.788Z,998.27
2018-01-02T07:48:46.475Z,998.26
2018-01-02T07:49:56.414Z,998.36
2018-01-02T07:51:06.097Z,998.36
2018-01-02T07:52:16.051Z,998.43
2018-01-02T07:53:25.992Z,998.43
2018-01-02T07:54:35.419Z,998.5
2018-01-02T07:55:45.364Z,998.45
2018-01-02T07:56:55.325Z,998.49
2018-01-02T07:58:05.277Z,998.5
2018-01-02T07:59:14.968Z,998.56
2018-01-02T08:00:24.966Z,998.51
2018-01-02T08:01:34.915Z,998.59
2018-01-02T08:02:44.857Z,998.66
2018-01-02T08:03:54.803Z,998.75
2018-01-02T08:05:04.755Z,998.81
2018-01-02T08:06:14.436Z,998.73
2018-01-02T08:07:23.923Z,998.72
2018-01-02T08:08:33.863Z,998.73
2018-01-02T08:09:43.820Z,998.86
2018-01-02T08:10:53.772Z,998.82
2018-01-02T08:12:03.719Z,998.86
2018-01-02T08:13:13.398Z,998.84
2018-01-02T08:14:23.337Z,998.93
2018-01-02T08:15:33.046Z,998.88
2018-01-02T08:16:42.992Z,999
2018-01-02T08:17:52.926Z,999
2018-01-02T08:19:02.623Z,999
2018-01-02T08:20:12.563Z,999.09
2018-01-02T08:21:22.269Z,999.01
2018-01-02T08:22:31.960Z,999.04
2018-01-02T08:23:41.906Z,999.15
2018-01-02T08:24:51.849Z,999.07
2018-01-02T08:26:01.540Z,999.15
2018-01-02T08:27:11.483Z,999.15
2018-01-02T08:28:21.167Z,999.22
2018-01-02T08:29:30.910Z,999.17
2018-01-02T08:30:40.088Z,999.2
2018-01-02T08:31:50.034Z,999.22
2018-01-02T08:32:59.982Z,999.32
2018-01-02T08:34:09.672Z,999.31
2018-01-02T08:35:19.355Z,999.3
2018-01-02T08:36:29.318Z,999.39
2018-01-02T08:37:38.753Z,999.41
2018-01-02T08:38:48.687Z,999.47
2018-01-02T08:39:58.622Z,999.49
2018-01-02T08:41:08.575Z,999.47
2018-01-02T08:42:18.526Z,999.53
2018-01-02T08:43:27.963Z,999.63
2018-01-02T08:44:37.919Z,999.55
2018-01-02T08:45:47.873Z,999.71
2018-01-02T08:46:57.820Z,999.72
2018-01-02T08:48:07.772Z,999.75
2018-01-02T08:49:17.720Z,999.78
2018-01-02T08:50:27.665Z,999.83
2018-01-02T08:51:37.601Z,999.87
2018-01-02T08:52:47.541Z,999.83
2018-01-02T08:53:57.281Z,999.92
2018-01-02T08:55:07.240Z,999.89
2018-01-02T08:56:16.966Z,999.99
2018-01-02T08:57:26.912Z,999.96
2018-01-02T08:58:36.871Z,999.98
2018-01-02T08:59:46.816Z,1000.05
2018-01-02T09:00:56.773Z,1000.03
2018-01-02T09:02:06.464Z,1000.01
2018-01-02T09:03:16.423Z,1000.08
2018-01-02T09:04:26.391Z,1000.12
2018-01-02T09:05:36.571Z,1000.09
2018-01-02T09:06:46.518Z,1000.14
2018-01-02T09:07:56.460Z,1000.13
2018-01-02T09:09:06.410Z,1000.21
2018-01-02T09:10:16.117Z,1000.2
2018-01-02T09:11:25.302Z,1000.22
2018-01-02T09:12:35.254Z,1000.26
2018-01-02T09:13:44.682Z,1000.31
2018-01-02T09:14:54.649Z,1000.3
2018-01-02T09:16:04.343Z,1000.3
2018-01-02T09:17:14.032Z,1000.37
2018-01-02T09:18:23.981Z,1000.44
2018-01-02T09:19:33.666Z,1000.39
2018-01-02T09:20:43.596Z,1000.42
2018-01-02T09:21:53.551Z,1000.41
2018-01-02T09:23:03.234Z,1000.43
2018-01-02T09:24:12.942Z,1000.47
2018-01-02T09:25:22.626Z,1000.47
2018-01-02T09:26:32.324Z,1000.49
2018-01-02T09:27:42.269Z,1000.57
2018-01-02T09:28:51.968Z,1000.54
2018-01-02T09:30:01.647Z,1000.52
2018-01-02T09:31:11.368Z,1000.53
2018-01-02T09:32:21.352Z,1000.6
2018-01-02T09:33:31.296Z,1000.64
2018-01-02T09:34:41.240Z,1000.66
2018-01-02T09:35:51.191Z,1000.66
2018-01-02T09:37:01.135Z,1000.7
2018-01-02T09:38:11.480Z,1000.7
2018-01-02T09:39:21.204Z,1000.68
2018-01-02T09:40:31.165Z,1000.63
2018-01-02T09:41:41.122Z,1000.66
2018-01-02T09:42:51.117Z,1000.7
2018-01-02T09:44:00.801Z,1000.72
2018-01-02T09:45:10.759Z,1000.71
2018-01-02T09:46:20.706Z,1000.74
2018-01-02T09:47:30.394Z,1000.74
2018-01-02T09:48:40.078Z,1000.79
2018-01-02T09:49:50.094Z,1000.79
2018-01-02T09:50:59.789Z,1000.83
2018-01-02T09:52:09.724Z,1000.83
2018-01-02T09:53:19.416Z,1000.92
2018-01-02T09:54:29.373Z,1000.91
2018-01-02T09:55:39.337Z,1000.84
2018-01-02T09:56:49.289Z,1000.85
2018-01-02T09:57:59.232Z,1000.9
2018-01-02T09:59:09.178Z,1000.88
2018-01-02T10:00:19.116Z,1000.94
2018-01-02T10:01:28.794Z,1000.92
2018-01-02T10:02:38.773Z,1000.96
2018-01-02T10:03:48.729Z,1000.95
2018-01-02T10:04:58.676Z,1001.01
2018-01-02T10:06:08.628Z,1001
2018-01-02T10:07:18.317Z,1000.98
2018-01-02T10:08:28.273Z,1001.03
2018-01-02T10:09:37.958Z,1001.07
2018-01-02T10:10:47.652Z,1001.04
2018-01-02T10:11:57.349Z,1001.08
2018-01-02T10:13:07.302Z,1001.18
2018-01-02T10:14:17.253Z,1001.13
2018-01-02T10:15:26.684Z,1001.09
2018-01-02T10:16:36.622Z,1001.09
2018-01-02T10:17:46.566Z,1001.13
2018-01-02T10:18:56.259Z,1001.15
2018-01-02T10:20:06.192Z,1001.15
2018-01-02T10:21:15.936Z,1001.14
2018-01-02T10:22:25.901Z,1001.13
2018-01-02T10:23:35.848Z,1001.14
2018-01-02T10:24:45.804Z,1001.12
2018-01-02T10:25:55.750Z,1001.25
2018-01-02T10:27:05.699Z,1001.24
2018-01-02T10:28:15.138Z,1001.24
2018-01-02T10:29:25.094Z,1001.21
2018-01-02T10:30:35.044Z,1001.23
2018-01-02T10:31:44.735Z,1001.26
2018-01-02T10:32:54.746Z,1001.29
2018-01-02T10:34:04.703Z,1001.31
2018-01-02T10:35:14.677Z,1001.3
2018-01-02T10:36:24.696Z,1001.35
2018-01-02T10:37:34.637Z,1001.38
2018-01-02T10:38:44.582Z,1001.35
2018-01-02T10:39:54.535Z,1001.49
2018-01-02T10:41:04.524Z,1001.45
2018-01-02T10:42:14.484Z,1001.36
2018-01-02T10:43:24.172Z,1001.34
2018-01-02T10:44:34.126Z,1001.36
2018-01-02T10:45:44.083Z,1001.36
2018-01-02T10:46:54.028Z,1001.45
2018-01-02T10:48:04.033Z,1001.31
2018-01-02T10:49:14.012Z,1001.39
2018-01-02T10:50:24.205Z,1001.37
2018-01-02T10:51:34.140Z,1001.42
2018-01-02T10:52:44.093Z,1001.42
2018-01-02T10:53:54.036Z,1001.47
2018-01-02T10:55:04.009Z,1001.46
2018-01-02T10:56:13.705Z,1001.48
2018-01-02T10:57:23.668Z,1001.52
2018-01-02T10:58:33.360Z,1001.55
2018-01-02T10:59:43.308Z,1001.6
2018-01-02T11:00:53.271Z,1001.59
2018-01-02T11:02:03.207Z,1001.58
2018-01-02T11:03:13.161Z,1001.69
2018-01-02T11:04:22.857Z,1001.67
2018-01-02T11:05:32.805Z,1001.73
2018-01-02T11:06:42.750Z,1001.66
2018-01-02T11:07:52.435Z,1001.66
2018-01-02T11:09:02.403Z,1001.68
2018-01-02T11:10:12.344Z,1001.81
2018-01-02T11:11:22.034Z,1001.71
2018-01-02T11:12:31.990Z,1001.67
2018-01-02T11:13:41.948Z,1001.65
2018-01-02T11:14:51.891Z,1001.67
2018-01-02T11:16:01.848Z,1001.69
2018-01-02T11:17:11.564Z,1001.74
2018-01-02T11:18:21.524Z,1001.71
2018-01-02T11:19:30.966Z,1001.7
2018-01-02T11:20:40.911Z,1001.75
2018-01-02T11:21:50.608Z,1001.76
2018-01-02T11:23:00.558Z,1001.72
2018-01-02T11:24:10.507Z,1001.83
2018-01-02T11:25:20.209Z,1001.77
2018-01-02T11:26:29.633Z,1001.81
2018-01-02T11:27:39.583Z,1001.81
2018-01-02T11:28:49.523Z,1001.82
2018-01-02T11:29:59.213Z,1001.8
2018-01-02T11:31:08.907Z,1001.87
2018-01-02T11:32:18.853Z,1001.82
2018-01-02T11:33:28.811Z,1001.86
2018-01-02T11:34:38.499Z,1001.84
2018-01-02T11:35:48.447Z,1001.99
2018-01-02T11:36:58.389Z,1001.91
2018-01-02T11:38:08.342Z,1001.92
2018-01-02T11:39:18.303Z,1001.82
2018-01-02T11:40:28.266Z,1001.9
2018-01-02T11:41:38.228Z,1001.91
2018-01-02T11:42:48.242Z,1001.9
2018-01-02T11:43:58.206Z,1001.87
2018-01-02T11:45:08.163Z,1001.83
2018-01-02T11:46:18.101Z,1001.85
2018-01-02T11:47:27.784Z,1001.89
2018-01-02T11:48:37.224Z,1001.84
2018-01-02T11:49:47.014Z,1001.89
2018-01-02T11:50:56.964Z,1001.98
2018-01-02T11:52:06.659Z,1001.96
2018-01-02T11:53:16.607Z,1001.94
2018-01-02T11:54:26.311Z,1001.99
2018-01-02T11:55:36.012Z,1002.01
2018-01-02T11:56:45.982Z,1002.01
2018-01-02T11:57:55.927Z,1001.99
2018-01-02T11:59:06.122Z,1002.11
2018-01-02T12:00:16.079Z,1002.04
2018-01-02T12:01:26.025Z,1001.99
2018-01-02T12:02:35.726Z,1002.1
2018-01-02T12:03:45.155Z,1002.05
2018-01-02T12:04:54.859Z,1002.05
2018-01-02T12:06:04.323Z,1002
2018-01-02T12:07:14.286Z,1002.05
2018-01-02T12:08:24.243Z,1001.95
2018-01-02T12:09:34.197Z,1002.11
2018-01-02T12:10:44.158Z,1002.14
2018-01-02T12:11:54.109Z,1002.04
2018-01-02T12:13:04.072Z,1002.03
2018-01-02T12:14:14.035Z,1002.03
2018-01-02T12:15:23.742Z,1002.05
2018-01-02T12:16:33.700Z,1002.01
2018-01-02T12:17:43.403Z,1002.1
2018-01-02T12:18:53.083Z,1002.09
2018-01-02T12:20:02.508Z,1002.08
2018-01-02T12:21:12.446Z,1002.11
2018-01-02T12:22:21.379Z,1002.03
2018-01-02T12:23:31.397Z,1002.07
2018-01-02T12:24:41.352Z,1002.17
2018-01-02T12:25:51.305Z,1002.17
2018-01-02T12:27:01.247Z,1002.18
2018-01-02T12:28:11.205Z,1002.18
2018-01-02T12:29:21.150Z,1002.17
2018-01-02T12:30:30.590Z,1002.19
2018-01-02T12:31:40.039Z,1002.29
2018-01-02T12:32:49.730Z,1002.31
2018-01-02T12:33:59.677Z,1002.32
2018-01-02T12:35:09.649Z,1002.26
2018-01-02T12:36:19.354Z,1002.31
2018-01-02T12:37:29.309Z,1002.34
2018-01-02T12:38:39.300Z,1002.28
2018-01-02T12:39:49.252Z,1002.36
2018-01-02T12:40:59.307Z,1002.4
2018-01-02T12:42:09.255Z,1002.36
2018-01-02T12:43:18.969Z,1002.39
2018-01-02T12:44:28.932Z,1002.38
2018-01-02T12:45:38.889Z,1002.32
2018-01-02T12:46:48.847Z,1002.39
2018-01-02T12:47:58.815Z,1002.37
2018-01-02T12:49:08.761Z,1002.34
2018-01-02T12:50:18.709Z,1002.41
2018-01-02T12:51:28.402Z,1002.37
2018-01-02T12:52:38.103Z,1002.39
2018-01-02T12:53:48.062Z,1002.43
2018-01-02T12:54:57.507Z,1002.47
2018-01-02T12:56:07.217Z,1002.48
2018-01-02T12:57:16.949Z,1002.48
2018-01-02T12:58:26.631Z,1002.53
2018-01-02T12:59:36.578Z,1002.55
2018-01-02T13:00:46.539Z,1002.57
2018-01-02T13:01:56.229Z,1002.6
2018-01-02T13:03:06.176Z,1002.68
2018-01-02T13:04:16.116Z,1002.79
2018-01-02T13:05:26.082Z,1002.69
2018-01-02T13:06:36.032Z,1002.7
2018-01-02T13:07:46.002Z,1002.63
2018-01-02T13:08:55.960Z,1002.85
2018-01-02T13:10:05.919Z,1002.66
2018-01-02T13:11:15.613Z,1002.81
2018-01-02T13:12:25.574Z,1002.76
2018-01-02T13:13:35.542Z,1002.73
2018-01-02T13:14:45.487Z,1002.76
2018-01-02T13:15:55.441Z,1002.84
2018-01-02T13:17:05.147Z,1002.81
2018-01-02T13:18:14.614Z,1002.89
2018-01-02T13:19:24.638Z,1002.8
2018-01-02T13:20:34.603Z,1002.84
2018-01-02T13:21:44.550Z,1002.82
2018-01-02T13:25:07.935Z,1002.9
2018-01-02T13:26:17.634Z,1002.8
2018-01-02T13:27:26.829Z,1002.9
2018-01-02T13:28:36.791Z,1002.93
2018-01-02T13:29:46.483Z,1002.96
2018-01-02T13:30:56.436Z,1002.93
2018-01-02T13:32:06.394Z,1002.92
2018-01-02T13:33:16.357Z,1002.95
2018-01-02T13:34:26.041Z,1002.94
2018-01-02T13:35:36.012Z,1003
2018-01-02T13:36:45.716Z,1003.04
2018-01-02T13:37:55.781Z,1003.02
2018-01-02T13:39:05.755Z,1002.99
2018-01-02T13:40:15.697Z,1003.02
2018-01-02T13:41:25.666Z,1003.11
2018-01-02T13:42:35.393Z,1003.1
2018-01-02T13:43:45.077Z,1003.06
2018-01-02T13:44:55.028Z,1003.01
2018-01-02T13:46:04.456Z,1003.12
2018-01-02T13:47:14.163Z,1002.94
2018-01-02T13:48:24.115Z,1003.12
2018-01-02T13:49:34.071Z,1003.13
2018-01-02T13:50:44.114Z,1003.12
2018-01-02T13:51:53.562Z,1003.11
2018-01-02T13:53:03.248Z,1003.13
2018-01-02T13:54:13.192Z,1003.19
2018-01-02T13:55:23.139Z,1003.14
2018-01-02T13:56:32.839Z,1003.16
2018-01-02T13:57:42.798Z,1003.21
2018-01-02T13:58:52.515Z,1003.19
2018-01-02T14:00:02.512Z,1003.25
2018-01-02T14:01:12.471Z,1003.24
2018-01-02T14:02:22.415Z,1003.21
2018-01-02T14:03:32.366Z,1003.25
2018-01-02T14:04:42.326Z,1003.31
2018-01-02T14:05:52.269Z,1003.33
2018-01-02T14:07:02.236Z,1003.27
2018-01-02T14:08:12.202Z,1003.3
2018-01-02T14:09:21.911Z,1003.32
2018-01-02T14:10:31.878Z,1003.35
2018-01-02T14:11:41.882Z,1003.31
2018-01-02T14:12:51.835Z,1003.35
2018-01-02T14:14:01.789Z,1003.38
2018-01-02T14:15:11.747Z,1003.28
2018-01-02T14:16:21.694Z,1003.31
2018-01-02T14:17:31.374Z,1003.49
2018-01-02T14:18:41.332Z,1003.42
2018-01-02T14:19:51.292Z,1003.43
2018-01-02T14:21:00.980Z,1003.43
2018-01-02T14:22:10.932Z,1003.42
2018-01-02T14:23:20.623Z,1003.41
2018-01-02T14:24:30.315Z,1003.5
2018-01-02T14:25:40.016Z,1003.46
2018-01-02T14:26:49.990Z,1003.5